Time;durP1;ratioP1;P1;durP2;ratioP2;P2;SDS_P1;SDS_P2;PMS_P1;PMS_P2;Temp;Humidity;BMP_temperature;BMP_pressure;BME280_temperature;BME280_humidity;BME280_pressure;Samples;Min_cycle;Max_cycle;Signal;HPM_P1;HPM_P2
2022/01/07 00:01:11;;;;;;;21.00;12.27;;;;;;;-1.74;100.00;98554.56;5095607;28;20222;-69
2022/01/07 00:03:38;;;;;;;17.60;11.80;;;;;;;-1.73;100.00;98551.13;5097098;28;20224;-69
2022/01/07 00:06:05;;;;;;;17.80;11.53;;;;;;;-1.71;100.00;98551.94;5094947;28;20217;-69
2022/01/07 00:08:31;;;;;;;19.90;12.27;;;;;;;-1.68;100.00;98549.31;5095505;28;20246;-69
2022/01/07 00:10:58;;;;;;;19.47;11.37;;;;;;;-1.65;100.00;98546.69;5106979;28;20233;-69
2022/01/07 00:13:26;;;;;;;19.63;11.93;;;;;;;-1.59;100.00;98541.41;5107132;28;20213;-69
2022/01/07 00:15:54;;;;;;;21.87;12.43;;;;;;;-1.64;100.00;98532.84;5104884;28;20207;-69
2022/01/07 00:18:22;;;;;;;19.67;12.00;;;;;;;-1.67;100.00;98532.91;5108117;28;20296;-69
2022/01/07 00:20:48;;;;;;;20.90;12.00;;;;;;;-1.70;100.00;98522.56;5108452;28;20223;-69
2022/01/07 00:23:15;;;;;;;18.07;11.20;;;;;;;-1.67;100.00;98522.53;5107205;28;20220;-69
2022/01/07 00:25:41;;;;;;;18.50;12.40;;;;;;;-1.67;100.00;98523.38;5104328;28;20689;-69
2022/01/07 00:28:08;;;;;;;17.50;11.00;;;;;;;-1.71;100.00;98523.44;5108152;28;20241;-69
2022/01/07 00:30:36;;;;;;;18.43;11.43;;;;;;;-1.71;100.00;98510.50;5108013;28;20238;-69
2022/01/07 00:33:03;;;;;;;19.77;12.13;;;;;;;-1.71;100.00;98505.31;5105828;28;20251;-69
2022/01/07 00:35:31;;;;;;;17.93;11.20;;;;;;;-1.73;100.00;98501.91;5104492;28;20214;-69
2022/01/07 00:37:58;;;;;;;18.10;11.50;;;;;;;-1.78;100.00;98498.53;5095575;28;20223;-69
2022/01/07 00:40:24;;;;;;;16.37;10.53;;;;;;;-1.85;100.00;98504.66;5101301;28;20211;-69
2022/01/07 00:42:52;;;;;;;17.97;11.10;;;;;;;-1.89;100.00;98506.41;5095696;28;20272;-69
2022/01/07 00:45:19;;;;;;;18.73;12.07;;;;;;;-1.95;100.00;98506.53;5097098;28;20218;-69
2022/01/07 00:47:46;;;;;;;17.53;11.17;;;;;;;-1.98;100.00;98505.69;5094915;28;20238;-69
2022/01/07 00:50:15;;;;;;;16.83;11.00;;;;;;;-2.01;100.00;98509.22;5095038;28;20669;-69
2022/01/07 00:52:43;;;;;;;16.30;10.43;;;;;;;-2.03;100.00;98507.53;5096272;28;20234;-69
2022/01/07 00:55:11;;;;;;;16.57;10.93;;;;;;;-1.99;100.00;98501.41;5100820;28;20218;-69
2022/01/07 00:57:38;;;;;;;21.00;12.30;;;;;;;-2.01;100.00;98500.59;5098842;28;20218;-69
2022/01/07 01:00:07;;;;;;;18.80;11.47;;;;;;;-2.05;100.00;98498.91;5097195;28;20221;-69
2022/01/07 01:02:34;;;;;;;16.30;11.90;;;;;;;-2.09;100.00;98497.25;5099679;28;20210;-69
2022/01/07 01:05:01;;;;;;;16.87;10.23;;;;;;;-2.09;100.00;98497.25;5100237;28;20225;-69
2022/01/07 01:07:28;;;;;;;15.27;11.40;;;;;;;-2.09;100.00;98500.69;5098311;28;20244;-69
2022/01/07 01:09:56;;;;;;;19.43;10.43;;;;;;;-2.08;100.00;98488.59;5099997;28;20242;-69
2022/01/07 01:12:23;;;;;;;13.70;9.70;;;;;;;-2.12;100.00;98486.91;5097696;28;20217;-69
2022/01/07 01:14:49;;;;;;;16.63;11.50;;;;;;;-2.08;100.00;98488.59;5099701;28;20213;-69
2022/01/07 01:17:16;;;;;;;16.23;9.93;;;;;;;-2.06;100.00;98476.47;5110189;28;20210;-69
2022/01/07 01:19:43;;;;;;;15.00;9.80;;;;;;;-2.03;100.00;98486.81;5098195;28;20219;-69
2022/01/07 01:22:09;;;;;;;18.43;11.17;;;;;;;-2.01;100.00;98485.03;5098361;28;20218;-69
2022/01/07 01:24:36;;;;;;;15.87;11.00;;;;;;;-2.04;100.00;98485.06;5099124;28;20210;-69
2022/01/07 01:27:05;;;;;;;18.80;11.50;;;;;;;-2.07;100.00;98469.59;5098279;28;20210;-69
2022/01/07 01:29:32;;;;;;;19.53;11.30;;;;;;;-2.05;100.00;98478.19;5098243;28;20220;-69
2022/01/07 01:31:58;;;;;;;18.57;11.80;;;;;;;-2.06;100.00;98473.88;5097954;28;20606;-69
2022/01/07 01:34:25;;;;;;;18.70;11.77;;;;;;;-2.08;100.00;98473.06;5100752;28;20206;-69
2022/01/07 01:36:51;;;;;;;16.17;11.43;;;;;;;-2.09;100.00;98471.34;5098252;28;20556;-69
2022/01/07 01:39:18;;;;;;;23.20;12.00;;;;;;;-2.11;100.00;98466.19;5098225;28;20214;-69
2022/01/07 01:41:45;;;;;;;16.93;11.87;;;;;;;-2.13;100.00;98470.53;5097892;28;20237;-69
2022/01/07 01:44:13;;;;;;;18.63;12.33;;;;;;;-2.13;100.00;98467.97;5100648;28;20217;-69
2022/01/07 01:46:40;;;;;;;16.53;11.77;;;;;;;-2.11;100.00;98467.91;5097682;28;20217;-69
2022/01/07 01:49:06;;;;;;;15.10;11.13;;;;;;;-2.15;100.00;98474.03;5097902;28;20585;-69
2022/01/07 01:51:34;;;;;;;19.73;11.00;;;;;;;-2.10;100.00;98469.63;5095951;28;20214;-69
2022/01/07 01:54:02;;;;;;;20.77;11.57;;;;;;;-2.07;100.00;98474.78;5104792;28;20295;-69
2022/01/07 01:56:28;;;;;;;21.20;12.07;;;;;;;-2.06;100.00;98471.28;5097624;28;20222;-69
2022/01/07 01:58:55;;;;;;;18.40;11.33;;;;;;;-2.06;100.00;98459.22;5097439;28;20593;-69
2022/01/07 02:01:23;;;;;;;17.97;11.77;;;;;;;-2.02;100.00;98457.44;5097596;28;20218;-69
2022/01/07 02:03:49;;;;;;;17.93;12.20;;;;;;;-2.01;100.00;98448.78;5099902;28;20210;-69
2022/01/07 02:06:16;;;;;;;19.90;12.57;;;;;;;-2.04;100.00;98444.50;5097481;28;20211;-69
2022/01/07 02:08:43;;;;;;;15.77;11.37;;;;;;;-2.09;100.00;98445.47;5097171;28;20707;-69
2022/01/07 02:11:09;;;;;;;19.43;11.83;;;;;;;-2.16;100.00;98439.50;5097538;28;20221;-69
2022/01/07 02:13:36;;;;;;;20.57;13.13;;;;;;;-2.23;100.00;98437.03;5100142;28;20236;-69
2022/01/07 02:16:03;;;;;;;19.23;12.00;;;;;;;-2.24;100.00;98435.31;5095716;28;20214;-69
2022/01/07 02:18:30;;;;;;;18.80;12.00;;;;;;;-2.18;100.00;98430.06;5097077;28;20217;-70
2022/01/07 02:20:58;;;;;;;18.00;11.80;;;;;;;-2.22;100.00;98436.13;5096883;28;20699;-69
2022/01/07 02:23:25;;;;;;;19.50;11.63;;;;;;;-2.16;100.00;98434.31;5100123;28;20217;-69
2022/01/07 02:25:51;;;;;;;17.17;10.93;;;;;;;-2.12;100.00;98435.13;5107930;28;20209;-69
2022/01/07 02:28:18;;;;;;;15.40;11.30;;;;;;;-2.05;100.00;98426.41;5109837;28;20230;-69
2022/01/07 02:30:44;;;;;;;15.63;10.97;;;;;;;-1.96;100.00;98421.09;5109458;28;20238;-70
2022/01/07 02:33:11;;;;;;;20.73;12.07;;;;;;;-1.98;100.00;98412.47;5107413;28;20671;-69
2022/01/07 02:35:38;;;;;;;22.87;12.97;;;;;;;-1.89;100.00;98410.59;5107267;28;20219;-69
2022/01/07 02:38:06;;;;;;;18.37;12.63;;;;;;;-1.85;100.00;98409.66;5109478;28;20266;-69
2022/01/07 02:40:33;;;;;;;18.20;11.10;;;;;;;-1.81;100.00;98416.53;5109391;28;20217;-69
2022/01/07 02:42:59;;;;;;;18.03;11.50;;;;;;;-1.75;100.00;98416.44;5105836;28;20701;-69
2022/01/07 02:45:26;;;;;;;17.70;10.90;;;;;;;-1.70;100.00;98413.75;5106756;28;20218;-69
2022/01/07 02:47:54;;;;;;;16.03;11.47;;;;;;;-1.70;100.00;98418.94;5109240;28;20234;-69
2022/01/07 02:50:24;;;;;;;18.87;11.30;;;;;;;-1.65;100.00;98411.94;5109298;28;20217;-69
2022/01/07 02:52:51;;;;;;;17.23;11.27;;;;;;;-1.64;100.00;98416.25;5107010;28;20274;-69
2022/01/07 02:55:21;;;;;;;21.57;12.00;;;;;;;-1.64;100.00;98413.66;5107139;28;20214;-69
2022/01/07 02:57:47;;;;;;;20.33;12.10;;;;;;;-1.62;100.00;98411.88;5109326;28;20216;-69
2022/01/07 03:00:16;;;;;;;16.70;11.97;;;;;;;-1.64;100.00;98413.66;5109492;28;20210;-69
2022/01/07 03:02:43;;;;;;;18.00;11.97;;;;;;;-1.65;100.00;98407.59;5106514;28;20679;-69
2022/01/07 03:05:11;;;;;;;21.33;12.03;;;;;;;-1.66;100.00;98405.06;5107205;28;20230;-69
2022/01/07 03:07:39;;;;;;;20.83;12.13;;;;;;;-1.70;100.00;98403.38;5109144;28;20248;-69
2022/01/07 03:10:08;;;;;;;17.87;11.03;;;;;;;-1.73;100.00;98406.03;5101568;28;20559;-69
2022/01/07 03:12:37;;;;;;;17.87;11.37;;;;;;;-1.73;100.00;98408.63;5095550;28;20225;-69
2022/01/07 03:15:05;;;;;;;22.57;13.13;;;;;;;-1.75;100.00;98411.25;5107032;28;20222;-69
2022/01/07 03:17:31;;;;;;;18.27;10.67;;;;;;;-1.77;100.00;98414.75;5108744;28;20217;-69
2022/01/07 03:19:58;;;;;;;17.67;11.00;;;;;;;-1.78;100.00;98415.63;5108979;28;20217;-69
2022/01/07 03:22:24;;;;;;;17.80;11.33;;;;;;;-1.74;100.00;98422.44;5105919;28;20690;-69
2022/01/07 03:24:51;;;;;;;16.40;10.90;;;;;;;-1.78;100.00;98420.81;5106862;28;20226;-69
2022/01/07 03:27:17;;;;;;;16.77;10.63;;;;;;;-1.79;100.00;98419.94;5108888;28;20210;-69
2022/01/07 03:29:45;;;;;;;14.53;10.13;;;;;;;-1.82;100.00;98420.00;5108543;28;20256;-70
2022/01/07 03:32:12;;;;;;;18.03;10.70;;;;;;;-1.79;100.00;98413.91;5106439;28;20210;-69
2022/01/07 03:34:38;;;;;;;14.73;10.50;;;;;;;-1.79;100.00;98411.31;5104788;28;20215;-69
2022/01/07 03:37:05;;;;;;;15.97;10.57;;;;;;;-1.76;100.00;98413.84;5108893;28;20218;-69
2022/01/07 03:39:31;;;;;;;17.27;10.53;;;;;;;-1.70;100.00;98418.94;5108843;28;20580;-69
2022/01/07 03:41:58;;;;;;;19.13;11.50;;;;;;;-1.67;100.00;98409.38;5107108;28;20206;-69
2022/01/07 03:44:24;;;;;;;19.40;10.73;;;;;;;-1.62;100.00;98414.47;5105427;28;20225;-69
2022/01/07 03:46:52;;;;;;;15.37;10.57;;;;;;;-1.64;100.00;98414.53;5108269;28;20258;-69
2022/01/07 03:49:18;;;;;;;16.00;10.07;;;;;;;-1.70;100.00;98413.75;5108481;28;20237;-69
2022/01/07 03:51:45;;;;;;;16.63;10.67;;;;;;;-1.81;100.00;98408.75;5107117;28;20217;-69
2022/01/07 03:54:12;;;;;;;14.80;10.07;;;;;;;-1.84;100.00;98406.19;5104881;28;20210;-69
2022/01/07 03:56:38;;;;;;;18.83;10.20;;;;;;;-1.89;100.00;98401.97;5108404;28;20208;-69
2022/01/07 03:59:05;;;;;;;13.60;10.27;;;;;;;-1.94;100.00;98404.66;5108657;28;20587;-69
2022/01/07 04:01:31;;;;;;;16.63;10.80;;;;;;;-1.94;100.00;98403.78;5106002;28;20213;-69
2022/01/07 04:03:59;;;;;;;15.60;10.27;;;;;;;-1.99;100.00;98410.75;5104319;28;20225;-69
2022/01/07 04:06:26;;;;;;;15.80;10.33;;;;;;;-2.07;100.00;98407.44;5108570;28;20214;-69
2022/01/07 04:08:52;;;;;;;13.47;9.53;;;;;;;-2.06;100.00;98412.63;5106969;28;20249;-69
2022/01/07 04:11:19;;;;;;;18.70;10.73;;;;;;;-2.08;100.00;98408.34;5095860;28;20229;-69
2022/01/07 04:13:46;;;;;;;16.37;9.73;;;;;;;-2.16;100.00;98411.03;5097565;28;20214;-69
2022/01/07 04:16:14;;;;;;;13.60;9.23;;;;;;;-2.22;100.00;98405.06;5095656;28;20208;-69
2022/01/07 04:18:40;;;;;;;16.97;10.00;;;;;;;-2.22;100.00;98407.66;5095671;28;20214;-69
2022/01/07 04:21:08;;;;;;;14.43;9.57;;;;;;;-2.26;100.00;98403.44;5095607;28;20221;-70
2022/01/07 04:23:34;;;;;;;15.50;9.63;;;;;;;-2.34;100.00;98397.53;5097807;28;20678;-69
2022/01/07 04:26:01;;;;;;;17.53;10.10;;;;;;;-2.27;100.00;98409.50;5094043;28;20217;-69
2022/01/07 04:28:28;;;;;;;13.57;9.20;;;;;;;-2.21;100.00;98410.22;5098475;28;20248;-69
2022/01/07 04:30:54;;;;;;;17.97;10.33;;;;;;;-2.12;100.00;98419.59;5099500;28;20242;-69
2022/01/07 04:33:26;;;;;;;16.27;9.27;;;;;;;-2.02;100.00;98406.47;5102141;28;20220;-69
2022/01/07 04:35:54;;;;;;;14.20;9.57;;;;;;;-1.88;100.00;98420.09;5099427;28;20221;-70
2022/01/07 04:38:22;;;;;;;17.37;9.50;;;;;;;-1.90;100.00;98402.88;5099146;28;20559;-69
2022/01/07 04:40:48;;;;;;;14.33;9.70;;;;;;;-1.79;100.00;98413.91;5099542;28;20220;-70
2022/01/07 04:43:15;;;;;;;14.53;9.27;;;;;;;-1.75;100.00;98418.16;5101030;28;20696;-69
2022/01/07 04:45:42;;;;;;;13.63;9.13;;;;;;;-1.73;100.00;98414.66;5099118;28;20215;-70
2022/01/07 04:48:08;;;;;;;13.70;9.20;;;;;;;-1.66;100.00;98415.41;5098769;28;20213;-70
2022/01/07 04:50:35;;;;;;;13.90;8.77;;;;;;;-1.66;100.00;98415.41;5098790;28;20217;-70
2022/01/07 04:53:02;;;;;;;15.47;8.93;;;;;;;-1.66;100.00;98420.59;5097567;28;20207;-69
2022/01/07 04:55:36;;;;;;;13.57;8.30;;;;;;;-1.61;100.00;98432.59;5098420;28;20292;-69
2022/01/07 04:58:03;;;;;;;13.87;9.00;;;;;;;-1.60;100.00;98426.53;5097702;28;20710;-69
2022/01/07 05:00:30;;;;;;;14.50;8.17;;;;;;;-1.59;100.00;98432.56;5097729;28;20218;-69
2022/01/07 05:02:57;;;;;;;11.50;7.47;;;;;;;-1.56;100.00;98423.00;5099733;28;20215;-69
2022/01/07 05:05:23;;;;;;;12.63;8.13;;;;;;;-1.53;100.00;98427.28;5097565;28;20669;-69
2022/01/07 05:07:50;;;;;;;13.93;8.27;;;;;;;-1.55;100.00;98423.84;5097924;28;20222;-69
2022/01/07 05:10:16;;;;;;;12.10;7.83;;;;;;;-1.64;100.00;98426.59;5096677;28;20234;-69
2022/01/07 05:12:45;;;;;;;12.17;7.30;;;;;;;-1.70;100.00;98418.94;5098762;28;20249;-69
2022/01/07 05:15:13;;;;;;;13.53;7.30;;;;;;;-1.76;100.00;98414.72;5097726;28;20236;-69
2022/01/07 05:17:40;;;;;;;11.80;7.70;;;;;;;-1.83;100.00;98414.84;5097578;28;20218;-69
2022/01/07 05:20:08;;;;;;;11.10;7.30;;;;;;;-1.89;100.00;98422.69;5095643;28;20217;-70
2022/01/07 05:22:34;;;;;;;9.90;6.63;;;;;;;-1.91;100.00;98420.13;5098828;28;20210;-70
2022/01/07 05:25:01;;;;;;;10.43;7.40;;;;;;;-1.90;100.00;98421.00;5101377;28;20213;-69
2022/01/07 05:27:27;;;;;;;10.47;7.00;;;;;;;-1.93;100.00;98426.22;5105179;28;20680;-69
2022/01/07 05:29:55;;;;;;;12.83;7.57;;;;;;;-1.90;100.00;98428.78;5097139;28;20236;-69
2022/01/07 05:32:22;;;;;;;9.60;6.53;;;;;;;-1.92;100.00;98422.72;5098657;28;20214;-69
2022/01/07 05:34:48;;;;;;;11.77;7.00;;;;;;;-1.86;100.00;98414.88;5097605;28;20211;-69
2022/01/07 05:37:15;;;;;;;10.63;7.07;;;;;;;-1.84;100.00;98413.13;5097369;28;20207;-69
2022/01/07 05:39:41;;;;;;;10.77;7.27;;;;;;;-1.77;100.00;98412.16;5097678;28;20218;-69
2022/01/07 05:42:08;;;;;;;12.20;7.20;;;;;;;-1.77;100.00;98406.97;5097754;28;20218;-69
2022/01/07 05:44:35;;;;;;;10.70;6.63;;;;;;;-1.67;100.00;98403.34;5096537;28;20240;-69
2022/01/07 05:47:03;;;;;;;11.50;6.67;;;;;;;-1.64;100.00;98393.78;5097229;28;20211;-69
2022/01/07 05:49:29;;;;;;;12.10;7.00;;;;;;;-1.59;100.00;98396.28;5097039;28;20240;-69
2022/01/07 05:51:56;;;;;;;10.43;6.40;;;;;;;-1.53;100.00;98391.00;5097142;28;20210;-69
2022/01/07 05:54:22;;;;;;;14.27;7.57;;;;;;;-1.43;100.00;98400.31;5098177;28;20210;-70
2022/01/07 05:56:49;;;;;;;12.77;7.20;;;;;;;-1.35;100.00;98394.09;5096547;28;20221;-69
2022/01/07 05:59:15;;;;;;;10.87;7.03;;;;;;;-1.30;100.00;98396.63;5096607;28;20644;-69
2022/01/07 06:01:42;;;;;;;15.13;8.27;;;;;;;-1.28;100.00;98394.84;5096778;28;20210;-69
2022/01/07 06:04:10;;;;;;;13.03;7.40;;;;;;;-1.20;100.00;98385.19;5098541;28;20284;-69
2022/01/07 06:06:36;;;;;;;11.40;7.90;;;;;;;-1.23;100.00;98393.03;5096448;28;20218;-69
2022/01/07 06:09:03;;;;;;;12.60;7.70;;;;;;;-1.25;100.00;98387.00;5096251;28;20245;-69
2022/01/07 06:11:29;;;;;;;16.60;7.90;;;;;;;-1.29;100.00;98380.19;5099930;28;20288;-69
2022/01/07 06:13:56;;;;;;;12.60;7.60;;;;;;;-1.28;100.00;98376.72;5097724;28;20210;-69
2022/01/07 06:16:22;;;;;;;12.40;8.00;;;;;;;-1.25;100.00;98377.50;5097306;28;20210;-69
2022/01/07 06:18:52;;;;;;;13.20;7.70;;;;;;;-1.24;100.00;98374.03;5097375;28;20213;-69
2022/01/07 06:21:21;;;;;;;14.37;7.60;;;;;;;-1.22;100.00;98376.59;5099104;28;20214;-69
2022/01/07 06:23:48;;;;;;;13.27;8.20;;;;;;;-1.26;100.00;98378.41;5097302;28;20301;-69
2022/01/07 06:26:14;;;;;;;13.60;7.67;;;;;;;-1.23;100.00;98375.72;5097160;28;20297;-70
2022/01/07 06:28:41;;;;;;;13.83;7.73;;;;;;;-1.24;100.00;98375.78;5097023;28;20218;-69
2022/01/07 06:31:07;;;;;;;14.20;8.10;;;;;;;-1.24;100.00;98373.19;5099000;28;20254;-69
2022/01/07 06:33:34;;;;;;;13.20;7.73;;;;;;;-1.21;100.00;98366.19;5097463;28;20691;-70
2022/01/07 06:36:01;;;;;;;13.80;8.67;;;;;;;-1.15;100.00;98368.69;5096273;28;20214;-69
2022/01/07 06:38:29;;;;;;;14.83;8.63;;;;;;;-1.14;100.00;98369.50;5096384;28;20225;-69
2022/01/07 06:40:55;;;;;;;14.73;8.60;;;;;;;-1.11;100.00;98372.06;5098535;28;20212;-69
2022/01/07 06:43:22;;;;;;;13.00;7.97;;;;;;;-1.16;100.00;98371.28;5097589;28;20236;-69
2022/01/07 06:45:48;;;;;;;12.37;7.67;;;;;;;-1.27;100.00;98371.50;5096900;28;20218;-69
2022/01/07 06:48:15;;;;;;;14.70;8.10;;;;;;;-1.32;100.00;98375.91;5096557;28;20687;-69
2022/01/07 06:50:42;;;;;;;12.93;7.90;;;;;;;-1.35;100.00;98375.13;5096518;28;20605;-70
2022/01/07 06:53:09;;;;;;;13.80;8.13;;;;;;;-1.37;100.00;98371.69;5099329;28;20220;-69
2022/01/07 06:55:36;;;;;;;19.33;8.57;;;;;;;-1.37;100.00;98374.28;5109517;28;20293;-69
2022/01/07 06:58:03;;;;;;;13.03;8.23;;;;;;;-1.42;100.00;98363.16;5109496;28;20213;-69
2022/01/07 07:00:30;;;;;;;14.53;8.20;;;;;;;-1.44;100.00;98364.91;5108293;28;20210;-69
2022/01/07 07:02:57;;;;;;;13.90;7.87;;;;;;;-1.44;100.00;98359.72;5103841;28;20234;-69
2022/01/07 07:05:24;;;;;;;16.40;9.80;;;;;;;-1.44;100.00;98364.91;5109246;28;20217;-70
2022/01/07 07:07:51;;;;;;;14.50;9.23;;;;;;;-1.37;100.00;98363.91;5109002;28;20216;-69
2022/01/07 07:10:17;;;;;;;15.37;8.77;;;;;;;-1.30;100.00;98361.19;5097464;28;20235;-69
2022/01/07 07:12:45;;;;;;;13.80;8.60;;;;;;;-1.21;100.00;98358.44;5097167;28;20210;-69
2022/01/07 07:15:12;;;;;;;15.80;9.17;;;;;;;-1.12;100.00;98357.41;5096136;28;20219;-69
2022/01/07 07:17:39;;;;;;;14.20;8.93;;;;;;;-1.04;100.00;98345.13;5095927;28;20688;-69
2022/01/07 07:20:06;;;;;;;16.33;8.83;;;;;;;-0.92;100.00;98348.31;5096527;28;20585;-69
2022/01/07 07:22:32;;;;;;;13.07;8.03;;;;;;;-0.86;100.00;98347.34;5098246;28;20226;-69
2022/01/07 07:24:59;;;;;;;14.50;8.43;;;;;;;-0.83;100.00;98344.66;5095883;28;20699;-70
2022/01/07 07:27:25;;;;;;;16.10;8.73;;;;;;;-0.79;100.00;98338.53;5095674;28;20229;-70
2022/01/07 07:29:53;;;;;;;15.57;9.00;;;;;;;-0.78;100.00;98335.03;5094214;28;20257;-70
2022/01/07 07:32:24;;;;;;;13.47;8.43;;;;;;;-0.76;100.00;98330.66;5095978;28;20223;-70
2022/01/07 07:35:03;;;;;;;13.97;8.10;;;;;;;-0.78;100.00;98317.75;5095797;28;20217;-70
2022/01/07 07:37:30;;;;;;;15.00;8.47;;;;;;;-0.71;100.00;98327.09;5096025;28;20217;-70
2022/01/07 07:39:56;;;;;;;13.13;8.50;;;;;;;-0.68;100.00;98323.59;5097777;28;20216;-70
2022/01/07 07:42:23;;;;;;;13.43;8.37;;;;;;;-0.65;100.00;98321.78;5096437;28;20225;-69
2022/01/07 07:44:50;;;;;;;14.20;8.43;;;;;;;-0.60;100.00;98321.66;5095882;28;20244;-69
2022/01/07 07:47:18;;;;;;;12.70;7.87;;;;;;;-0.57;100.00;98326.81;5095831;28;20209;-69
2022/01/07 07:49:44;;;;;;;14.97;8.97;;;;;;;-0.54;100.00;98325.00;5097217;28;20610;-70
2022/01/07 07:52:11;;;;;;;13.33;7.87;;;;;;;-0.52;100.00;98320.63;5096711;28;20214;-70
2022/01/07 07:54:37;;;;;;;13.53;7.77;;;;;;;-0.47;100.00;98318.78;5094266;28;20214;-69
2022/01/07 07:57:04;;;;;;;13.23;8.20;;;;;;;-0.40;100.00;98320.34;5095836;28;20221;-69
2022/01/07 07:59:31;;;;;;;13.47;7.80;;;;;;;-0.35;100.00;98312.44;5096469;28;20221;-69
2022/01/07 08:01:58;;;;;;;12.90;8.57;;;;;;;-0.37;100.00;98309.03;5098364;28;20584;-69
2022/01/07 08:04:25;;;;;;;12.97;8.23;;;;;;;-0.29;100.00;98309.69;5098494;28;20223;-68
2022/01/07 08:06:52;;;;;;;12.70;7.77;;;;;;;-0.24;100.00;98315.63;5097498;28;20210;-68
2022/01/07 08:09:19;;;;;;;13.67;8.10;;;;;;;-0.26;100.00;98307.03;5109264;28;20209;-67
2022/01/07 08:11:51;;;;;;;13.67;7.57;;;;;;;-0.22;100.00;98310.34;5108977;28;20214;-68
2022/01/07 08:17:05;;;;;;;12.47;7.40;;;;;;;-0.20;100.00;98306.88;5099633;28;20698;-68
2022/01/07 08:19:33;;;;;;;13.53;8.07;;;;;;;-0.14;100.00;98307.56;5099834;28;20287;-68
2022/01/07 08:22:00;;;;;;;15.07;7.60;;;;;;;-0.16;100.00;98302.41;5097305;28;20222;-68
2022/01/07 08:24:26;;;;;;;11.00;7.33;;;;;;;-0.11;100.00;98312.72;5098688;28;20231;-68
2022/01/07 08:26:53;;;;;;;12.43;8.33;;;;;;;-0.13;100.00;98304.94;5098509;28;20210;-68
2022/01/07 08:29:23;;;;;;;13.93;7.67;;;;;;;-0.05;100.00;98300.41;5099228;28;20218;-68
2022/01/07 08:37:21;;;;;;;13.03;7.70;;;;;;;0.07;100.00;98291.47;5100158;28;20341;-69
2022/01/07 08:39:48;;;;;;;13.87;8.80;;;;;;;0.05;100.00;98288.91;5099286;28;20222;-70
2022/01/07 08:42:15;;;;;;;11.10;7.13;;;;;;;0.07;100.00;98287.13;5099357;28;20207;-70
2022/01/07 08:44:41;;;;;;;12.17;7.30;;;;;;;0.11;100.00;98293.09;5099506;28;20218;-69
2022/01/07 08:47:08;;;;;;;12.67;7.40;;;;;;;0.17;100.00;98288.59;5099318;28;20218;-69
2022/01/07 08:49:35;;;;;;;13.67;7.90;;;;;;;0.07;100.00;98292.31;5099066;28;20216;-70
2022/01/07 08:52:02;;;;;;;11.50;7.13;;;;;;;0.12;100.00;98295.66;5098749;28;20215;-71
2022/01/07 08:54:28;;;;;;;12.63;7.30;;;;;;;0.13;100.00;98302.56;5098968;28;20216;-69
2022/01/07 08:56:55;;;;;;;11.80;7.50;;;;;;;0.16;100.00;98297.28;5101153;28;20699;-70
2022/01/07 08:59:22;;;;;;;11.87;6.83;;;;;;;0.23;100.00;98298.84;5098911;28;20214;-70
2022/01/07 09:01:48;;;;;;;10.17;6.90;;;;;;;0.32;100.00;98290.78;5098851;28;20211;-70
2022/01/07 09:04:15;;;;;;;10.97;7.20;;;;;;;0.45;100.00;98294.75;5098848;28;20224;-69
2022/01/07 09:06:42;;;;;;;12.60;7.33;;;;;;;0.50;100.00;98281.66;5097915;28;20217;-69
2022/01/07 09:09:09;;;;;;;11.00;7.00;;;;;;;0.57;100.00;98278.81;5097804;28;20234;-70
2022/01/07 09:11:37;;;;;;;11.40;6.93;;;;;;;0.66;100.00;98283.78;5096588;28;20300;-70
2022/01/07 09:14:03;;;;;;;10.50;7.70;;;;;;;0.75;100.00;98275.72;5093234;28;20212;-70
2022/01/07 09:16:30;;;;;;;9.67;6.60;;;;;;;0.80;100.00;98279.03;5097876;28;20210;-70
2022/01/07 09:18:56;;;;;;;9.97;6.60;;;;;;;0.85;100.00;98284.97;5094417;28;20216;-70
2022/01/07 09:21:23;;;;;;;10.20;6.90;;;;;;;0.88;100.00;98290.09;5094060;28;20217;-69
2022/01/07 09:23:51;;;;;;;10.03;6.67;;;;;;;0.90;100.00;98283.09;5095241;28;20214;-69
2022/01/07 09:26:17;;;;;;;10.47;6.33;;;;;;;0.92;100.00;98281.28;5094314;28;20681;-69
2022/01/07 09:28:44;;;;;;;12.40;6.50;;;;;;;1.01;100.00;98283.66;5094283;28;20676;-70
2022/01/07 09:31:11;;;;;;;11.47;6.77;;;;;;;1.01;100.00;98277.56;5094534;28;20670;-69
2022/01/07 09:33:38;;;;;;;10.50;6.63;;;;;;;1.07;100.00;98278.25;5095763;28;20551;-69
2022/01/07 09:36:05;;;;;;;10.70;7.00;;;;;;;1.11;100.00;98282.47;5095418;28;20222;-69
2022/01/07 09:38:32;;;;;;;11.43;7.37;;;;;;;1.14;100.00;98277.19;5094372;28;20214;-69
2022/01/07 09:40:59;;;;;;;10.00;6.37;;;;;;;1.16;100.00;98274.53;5095533;28;20245;-69
2022/01/07 09:43:26;;;;;;;10.17;6.43;;;;;;;1.16;100.00;98283.19;5095617;28;20214;-69
2022/01/07 09:45:52;;;;;;;9.10;6.43;;;;;;;1.21;100.00;98273.47;5095198;28;20675;-69
2022/01/07 09:48:19;;;;;;;11.00;6.50;;;;;;;1.21;100.00;98273.47;5095940;28;20214;-70
2022/01/07 09:50:46;;;;;;;10.00;5.80;;;;;;;1.25;100.00;98269.91;5095052;28;20244;-69
2022/01/07 09:53:15;;;;;;;10.53;6.93;;;;;;;1.30;100.00;98273.19;5095464;28;20210;-69
2022/01/07 09:55:42;;;;;;;8.37;6.00;;;;;;;1.32;100.00;98270.56;5095002;28;20216;-69
2022/01/07 09:58:12;;;;;;;10.43;6.37;;;;;;;1.36;100.00;98262.59;5095413;28;20214;-69
2022/01/07 10:00:41;;;;;;;8.43;6.03;;;;;;;1.35;100.00;98260.88;5094883;28;20238;-69
2022/01/07 10:03:08;;;;;;;9.67;6.33;;;;;;;1.37;100.00;98253.91;5094836;28;20222;-69
2022/01/07 10:05:41;;;;;;;8.13;5.97;;;;;;;1.44;100.00;98250.22;5093133;28;20221;-70
2022/01/07 10:08:23;;;;;;;8.33;6.00;;;;;;;1.49;100.00;98252.66;5095093;28;20214;-70
2022/01/07 10:11:09;;;;;;;10.53;6.67;;;;;;;1.59;100.00;98249.72;5109142;28;20240;-69
2022/01/07 10:13:37;;;;;;;11.80;6.23;;;;;;;1.56;100.00;98255.03;5108821;28;20206;-70
2022/01/07 10:16:13;;;;;;;9.03;6.53;;;;;;;1.53;100.00;98255.09;5109067;28;20217;-71
2022/01/07 10:18:40;;;;;;;7.93;6.03;;;;;;;1.52;100.00;98250.81;5112170;28;20214;-71
2022/01/07 10:21:08;;;;;;;8.83;6.47;;;;;;;1.48;100.00;98256.16;5112032;28;20218;-71
2022/01/07 10:23:35;;;;;;;9.10;6.07;;;;;;;1.42;100.00;98259.81;5111459;28;20214;-71
2022/01/07 10:26:01;;;;;;;9.47;6.80;;;;;;;1.33;100.00;98256.63;5109647;28;20225;-71
2022/01/07 10:28:30;;;;;;;9.30;6.40;;;;;;;1.32;100.00;98244.50;5111721;28;20668;-71
2022/01/07 10:31:00;;;;;;;10.83;6.60;;;;;;;1.30;100.00;98236.75;5110176;28;20265;-70
2022/01/07 10:33:28;;;;;;;11.60;5.67;;;;;;;1.28;100.00;98233.34;5097800;28;20268;-71
2022/01/07 10:35:56;;;;;;;11.67;6.80;;;;;;;1.27;100.00;98226.44;5094552;28;20213;-70
2022/01/07 10:38:24;;;;;;;11.43;6.80;;;;;;;1.20;100.00;98224.94;5094431;28;20234;-70
2022/01/07 10:40:53;;;;;;;12.17;7.07;;;;;;;1.18;100.00;98225.88;5094190;28;20207;-70
2022/01/07 10:43:22;;;;;;;10.07;6.63;;;;;;;1.12;100.00;98224.28;5094553;28;20212;-70
2022/01/07 10:45:50;;;;;;;10.53;7.50;;;;;;;1.09;100.00;98226.13;5094310;28;20238;-69
2022/01/07 10:48:20;;;;;;;11.73;7.57;;;;;;;1.02;100.00;98225.50;5094022;28;20592;-70
2022/01/07 10:50:47;;;;;;;12.90;7.93;;;;;;;1.02;100.00;98220.28;5093760;28;20226;-69
2022/01/07 10:53:26;;;;;;;11.03;7.43;;;;;;;1.05;100.00;98214.97;5094432;28;20579;-70
2022/01/07 10:56:06;;;;;;;10.83;7.37;;;;;;;1.05;100.00;98208.94;5094221;28;20302;-69
2022/01/07 10:58:57;;;;;;;10.20;7.57;;;;;;;0.97;100.00;98206.56;5092506;28;20219;-69
2022/01/07 11:01:32;;;;;;;12.20;6.93;;;;;;;0.96;100.00;98210.06;5108723;28;20207;-69
2022/01/07 11:04:02;;;;;;;11.20;7.73;;;;;;;0.93;100.00;98210.13;5111199;28;20206;-69
2022/01/07 11:06:30;;;;;;;12.67;8.23;;;;;;;0.89;100.00;98205.94;5111100;28;20217;-69
2022/01/07 11:08:58;;;;;;;12.27;8.27;;;;;;;0.88;100.00;98206.84;5110639;28;20215;-69
2022/01/07 11:11:27;;;;;;;14.00;8.53;;;;;;;0.88;100.00;98203.38;5096329;28;20234;-69
2022/01/07 11:13:53;;;;;;;14.07;8.73;;;;;;;0.86;100.00;98206.03;5096194;28;20212;-68
2022/01/07 11:16:20;;;;;;;11.47;7.87;;;;;;;0.85;100.00;98203.47;5095795;28;20214;-68
2022/01/07 11:18:49;;;;;;;13.23;8.73;;;;;;;0.87;100.00;98199.91;5097433;28;20229;-68
2022/01/07 11:21:18;;;;;;;12.97;8.63;;;;;;;0.85;100.00;98201.72;5096327;28;20222;-68
2022/01/07 11:23:44;;;;;;;13.57;9.30;;;;;;;0.86;100.00;98195.63;5094055;28;20215;-69
2022/01/07 11:26:12;;;;;;;13.13;8.30;;;;;;;0.87;100.00;98194.72;5095657;28;20690;-68